createdAt,value
2019-05-25T00:02:21.638Z,14.50
2019-05-25T00:04:50.069Z,14.40
2019-05-25T00:07:18.587Z,14.30
2019-05-25T00:09:48.460Z,14.30
2019-05-25T00:12:17.137Z,14.20
2019-05-25T00:14:45.597Z,14.10
2019-05-25T00:17:14.123Z,14.10
2019-05-25T00:19:42.561Z,14.10
2019-05-25T00:22:10.997Z,14.10
2019-05-25T00:24:39.467Z,14.00
2019-05-25T00:27:07.944Z,14.00
2019-05-25T00:29:36.378Z,13.90
2019-05-25T00:32:04.953Z,13.90
2019-05-25T00:34:33.384Z,13.80
2019-05-25T00:37:01.837Z,13.70
2019-05-25T00:39:30.332Z,13.70
2019-05-25T00:41:58.836Z,13.70
2019-05-25T00:44:27.344Z,13.70
2019-05-25T00:46:55.817Z,13.60
2019-05-25T00:49:24.260Z,13.60
2019-05-25T00:51:52.794Z,13.50
2019-05-25T00:54:28.002Z,13.50
2019-05-25T00:56:51.940Z,13.50
2019-05-25T00:59:20.487Z,13.50
2019-05-25T01:01:48.995Z,13.50
2019-05-25T01:04:18.984Z,13.50
2019-05-25T01:06:47.513Z,13.40
2019-05-25T01:09:16.010Z,13.30
2019-05-25T01:11:44.455Z,13.30
2019-05-25T01:14:12.905Z,13.30
2019-05-25T01:16:41.404Z,13.30
2019-05-25T01:19:09.902Z,13.30
2019-05-25T01:21:38.423Z,13.30
2019-05-25T01:24:06.942Z,13.20
2019-05-25T01:26:35.373Z,13.20
2019-05-25T01:29:03.985Z,13.30
2019-05-25T01:31:32.433Z,13.30
2019-05-25T01:34:00.865Z,13.30
2019-05-25T01:36:29.313Z,13.20
2019-05-25T01:38:57.739Z,13.10
2019-05-25T01:41:26.187Z,13.10
2019-05-25T01:43:54.648Z,13.10
2019-05-25T01:46:23.067Z,13.10
2019-05-25T01:48:51.694Z,13.10
2019-05-25T01:51:20.146Z,13.10
2019-05-25T01:53:48.575Z,13.20
2019-05-25T01:56:17.016Z,13.30
2019-05-25T01:58:45.450Z,13.30
2019-05-25T02:01:13.898Z,13.30
2019-05-25T02:03:42.330Z,13.30
2019-05-25T02:06:10.883Z,13.30
2019-05-25T02:08:39.340Z,13.30
2019-05-25T02:11:07.839Z,13.30
2019-05-25T02:13:36.364Z,13.30
2019-05-25T02:16:04.886Z,13.30
2019-05-25T02:18:33.348Z,13.20
2019-05-25T02:21:01.777Z,13.20
2019-05-25T02:23:30.212Z,13.10
2019-05-25T02:25:58.672Z,13.10
2019-05-25T02:28:27.119Z,13.00
2019-05-25T02:30:55.557Z,13.00
2019-05-25T02:33:24.001Z,13.00
2019-05-25T02:35:52.457Z,13.00
2019-05-25T02:38:20.983Z,13.00
2019-05-25T02:40:49.423Z,12.90
2019-05-25T02:43:17.871Z,12.90
2019-05-25T02:45:46.351Z,12.80
2019-05-25T02:48:14.810Z,12.80
2019-05-25T02:50:43.223Z,12.70
2019-05-25T02:53:11.664Z,12.60
2019-05-25T02:55:40.096Z,12.50
2019-05-25T02:58:08.531Z,12.40
2019-05-25T03:00:37.134Z,12.30
2019-05-25T03:03:05.725Z,12.30
2019-05-25T03:05:34.391Z,12.20
2019-05-25T03:08:03.522Z,12.10
2019-05-25T03:10:32.287Z,12.00
2019-05-25T03:13:05.226Z,12.00
2019-05-25T03:15:33.710Z,11.90
2019-05-25T03:18:02.225Z,11.80
2019-05-25T03:20:30.663Z,11.70
2019-05-25T03:22:59.133Z,11.70
2019-05-25T03:25:27.630Z,11.70
2019-05-25T03:27:56.081Z,11.70
2019-05-25T03:30:35.179Z,11.80
2019-05-25T03:33:03.774Z,11.90
2019-05-25T03:35:32.332Z,11.90
2019-05-25T03:38:00.857Z,12.00
2019-05-25T03:40:29.379Z,12.10
2019-05-25T03:42:57.811Z,12.20
2019-05-25T03:45:26.340Z,12.10
2019-05-25T03:47:54.803Z,12.10
2019-05-25T03:50:23.232Z,12.10
2019-05-25T03:52:51.684Z,12.10
2019-05-25T03:55:20.121Z,12.10
2019-05-25T03:57:48.562Z,12.20
2019-05-25T04:00:18.988Z,12.10
2019-05-25T04:02:47.439Z,12.10
2019-05-25T04:05:15.991Z,12.00
2019-05-25T04:07:44.488Z,11.90
2019-05-25T04:10:13.157Z,11.90
2019-05-25T04:12:41.659Z,11.90
2019-05-25T04:15:10.172Z,11.80
2019-05-25T04:17:38.662Z,11.70
2019-05-25T04:20:07.750Z,11.80
2019-05-25T04:22:36.252Z,11.80
2019-05-25T04:25:06.140Z,11.80
2019-05-25T04:27:34.567Z,11.70
2019-05-25T04:30:03.308Z,11.70
2019-05-25T04:32:31.747Z,11.70
2019-05-25T04:35:00.182Z,11.80
2019-05-25T04:37:28.668Z,11.90
2019-05-25T04:39:57.147Z,11.90
2019-05-25T04:42:25.597Z,11.80
2019-05-25T04:44:54.185Z,11.70
2019-05-25T04:47:26.898Z,11.60
2019-05-25T04:49:52.888Z,11.60
2019-05-25T04:52:21.317Z,11.60
2019-05-25T04:54:49.756Z,11.60
2019-05-25T04:57:18.294Z,11.70
2019-05-25T04:59:46.803Z,11.90
2019-05-25T05:02:15.263Z,12.00
2019-05-25T05:04:43.723Z,12.10
2019-05-25T05:07:12.172Z,12.20
2019-05-25T05:09:40.626Z,12.30
2019-05-25T05:12:09.062Z,12.50
2019-05-25T05:14:37.588Z,12.70
2019-05-25T05:17:06.062Z,12.90
2019-05-25T05:19:34.578Z,13.00
2019-05-25T05:22:05.808Z,13.10
2019-05-25T05:24:33.234Z,13.30
2019-05-25T05:27:01.707Z,13.40
2019-05-25T05:29:30.235Z,13.40
2019-05-25T05:31:58.811Z,13.40
2019-05-25T05:34:27.324Z,13.50
2019-05-25T05:36:56.228Z,13.60
2019-05-25T05:39:26.307Z,13.70
2019-05-25T05:41:55.590Z,13.80
2019-05-25T05:44:26.592Z,13.90
2019-05-25T05:46:57.525Z,14.00
2019-05-25T05:49:27.328Z,14.10
2019-05-25T05:51:57.299Z,14.20
2019-05-25T05:54:26.102Z,14.40
2019-05-25T05:57:10.792Z,14.40
2019-05-25T05:59:24.799Z,14.50
2019-05-25T06:01:53.225Z,14.70
2019-05-25T06:04:21.664Z,14.80
2019-05-25T06:06:50.118Z,14.90
2019-05-25T06:09:20.216Z,15.00
2019-05-25T06:11:48.756Z,15.10
2019-05-25T06:14:17.208Z,15.10
2019-05-25T06:16:45.751Z,15.20
2019-05-25T06:19:14.177Z,15.30
2019-05-25T06:21:42.790Z,15.30
2019-05-25T06:24:11.245Z,15.40
2019-05-25T06:26:39.765Z,15.40
2019-05-25T06:29:08.289Z,15.30
2019-05-25T06:31:36.754Z,15.20
2019-05-25T06:34:05.440Z,15.20
2019-05-25T06:36:33.919Z,15.30
2019-05-25T06:39:02.353Z,15.50
2019-05-25T06:41:30.815Z,15.70
2019-05-25T06:43:59.237Z,15.90
2019-05-25T06:46:27.817Z,16.00
2019-05-25T06:48:56.496Z,16.10
2019-05-25T06:51:25.678Z,16.30
2019-05-25T06:53:54.089Z,16.50
2019-05-25T06:56:22.508Z,16.60
2019-05-25T06:58:51.216Z,16.60
2019-05-25T07:01:20.086Z,16.50
2019-05-25T07:03:48.581Z,16.50
2019-05-25T07:06:17.022Z,16.60
2019-05-25T07:08:45.460Z,16.60
2019-05-25T07:11:15.034Z,16.60
2019-05-25T07:13:43.456Z,16.90
2019-05-25T07:16:11.925Z,17.20
2019-05-25T07:18:40.362Z,17.40
2019-05-25T07:21:08.813Z,17.80
2019-05-25T07:23:37.427Z,18.10
2019-05-25T07:26:06.152Z,18.10
2019-05-25T07:28:34.732Z,17.90
2019-05-25T07:31:03.270Z,18.00
2019-05-25T07:33:31.710Z,18.00
2019-05-25T07:36:00.151Z,18.00
2019-05-25T07:38:28.696Z,18.20
2019-05-25T07:40:57.141Z,18.40
2019-05-25T07:43:25.591Z,18.70
2019-05-25T07:45:54.028Z,19.10
2019-05-25T07:48:22.488Z,19.30
2019-05-25T07:50:51.067Z,19.40
2019-05-25T07:53:19.852Z,19.40
2019-05-25T07:55:48.290Z,19.40
2019-05-25T07:58:18.529Z,19.20
2019-05-25T08:00:46.992Z,19.10
2019-05-25T08:03:15.417Z,18.90
2019-05-25T08:05:43.877Z,18.80
2019-05-25T08:08:12.328Z,18.70
2019-05-25T08:10:40.861Z,18.80
2019-05-25T08:13:09.290Z,18.60
2019-05-25T08:15:37.736Z,18.70
2019-05-25T08:18:06.185Z,19.00
2019-05-25T08:20:34.644Z,19.80
2019-05-25T08:23:03.157Z,20.50
2019-05-25T08:25:31.813Z,20.60
2019-05-25T08:28:00.894Z,20.20
2019-05-25T08:30:29.362Z,19.90
2019-05-25T08:32:57.809Z,20.20
2019-05-25T08:35:26.858Z,20.30
2019-05-25T08:37:55.365Z,20.50
2019-05-25T08:40:27.056Z,20.40
2019-05-25T08:42:55.521Z,20.20
2019-05-25T08:45:26.040Z,19.90
2019-05-25T08:47:57.085Z,20.50
2019-05-25T08:50:37.151Z,20.80
2019-05-25T08:52:54.849Z,20.70
2019-05-25T08:55:23.293Z,20.40
2019-05-25T08:57:51.815Z,21.20
2019-05-25T09:00:21.073Z,22.60
2019-05-25T09:02:49.517Z,22.90
2019-05-25T09:05:18.092Z,22.50
2019-05-25T09:07:46.787Z,22.30
2019-05-25T09:10:15.510Z,22.70
2019-05-25T09:12:43.963Z,22.50
2019-05-25T09:15:12.749Z,22.80
2019-05-25T09:17:41.210Z,23.40
2019-05-25T09:20:10.182Z,23.80
2019-05-25T09:22:38.714Z,24.20
2019-05-25T09:25:08.083Z,23.80
2019-05-25T09:27:37.116Z,23.60
2019-05-25T09:30:09.120Z,23.90
2019-05-25T09:32:37.594Z,23.90
2019-05-25T09:35:07.381Z,24.00
2019-05-25T09:37:36.195Z,24.80
2019-05-25T09:40:06.774Z,25.30
2019-05-25T09:42:35.330Z,25.60
2019-05-25T09:45:07.290Z,25.50
2019-05-25T09:47:35.849Z,25.30
2019-05-25T09:52:55.323Z,24.60
2019-05-25T09:55:23.784Z,24.90
2019-05-25T09:57:52.337Z,25.00
2019-05-25T10:00:21.674Z,25.50
2019-05-25T10:02:50.239Z,25.60
2019-05-25T10:05:19.126Z,25.10
2019-05-25T10:07:47.723Z,24.80
2019-05-25T10:10:16.581Z,24.40
2019-05-25T10:12:45.081Z,24.50
2019-05-25T10:15:13.714Z,24.40
2019-05-25T10:17:42.151Z,24.30
2019-05-25T10:20:11.017Z,23.90
2019-05-25T10:22:39.626Z,23.90
2019-05-25T10:25:08.683Z,24.20
2019-05-25T10:27:37.146Z,24.40
2019-05-25T10:30:06.897Z,24.60
2019-05-25T10:32:35.462Z,24.60
2019-05-25T10:35:06.659Z,24.80
2019-05-25T10:37:35.285Z,24.60
2019-05-25T10:40:08.398Z,24.70
2019-05-25T10:42:36.979Z,24.90
2019-05-25T10:45:07.947Z,25.50
2019-05-25T10:47:36.432Z,25.80
2019-05-25T10:50:10.486Z,26.10
2019-05-25T10:52:39.115Z,26.60
2019-05-25T10:55:10.676Z,27.10
2019-05-25T10:57:39.275Z,27.20
2019-05-25T11:00:10.875Z,27.60
2019-05-25T11:02:39.345Z,28.00
2019-05-25T11:05:08.523Z,28.20
2019-05-25T11:07:37.056Z,28.20
2019-05-25T11:10:08.234Z,28.10
2019-05-25T11:12:38.847Z,27.80
2019-05-25T11:15:09.023Z,27.60
2019-05-25T11:17:37.461Z,27.50
2019-05-25T11:20:07.828Z,26.80
2019-05-25T11:22:36.268Z,26.70
2019-05-25T11:25:09.361Z,27.00
2019-05-25T11:27:37.902Z,27.30
2019-05-25T11:30:09.345Z,27.50
2019-05-25T11:32:37.780Z,27.70
2019-05-25T11:35:06.935Z,27.80
2019-05-25T11:37:35.473Z,27.30
2019-05-25T11:40:07.024Z,26.70
2019-05-25T11:42:35.520Z,27.00
2019-05-25T11:45:05.643Z,27.30
2019-05-25T11:47:34.149Z,27.40
2019-05-25T11:50:02.736Z,27.20
2019-05-25T11:52:31.343Z,26.80
2019-05-25T11:54:59.806Z,26.10
2019-05-25T11:57:28.253Z,25.70
2019-05-25T11:59:56.712Z,26.00
2019-05-25T12:02:25.264Z,26.10
2019-05-25T12:04:54.050Z,26.20
2019-05-25T12:07:23.030Z,26.60
2019-05-25T12:09:51.842Z,26.70
2019-05-25T12:12:21.853Z,26.70
2019-05-25T12:14:50.351Z,26.80
2019-05-25T12:17:18.800Z,26.70
2019-05-25T12:19:47.321Z,26.90
2019-05-25T12:22:15.788Z,27.20
2019-05-25T12:24:44.431Z,27.40
2019-05-25T12:27:12.958Z,27.60
2019-05-25T12:29:41.426Z,27.70
2019-05-25T12:32:09.960Z,27.90
2019-05-25T12:34:38.378Z,27.60
2019-05-25T12:37:06.895Z,27.50
2019-05-25T12:39:35.352Z,27.80
2019-05-25T12:42:04.105Z,28.00
2019-05-25T12:44:34.550Z,28.20
2019-05-25T12:47:02.850Z,28.30
2019-05-25T12:49:48.515Z,28.40
2019-05-25T12:52:01.464Z,28.50
2019-05-25T12:54:29.927Z,28.70
2019-05-25T12:56:58.365Z,28.70
2019-05-25T12:59:26.832Z,28.60
2019-05-25T13:01:55.272Z,29.00
2019-05-25T13:04:23.732Z,28.80
2019-05-25T13:06:52.228Z,28.80
2019-05-25T13:09:20.714Z,28.90
2019-05-25T13:11:49.165Z,28.80
2019-05-25T13:14:17.623Z,29.00
2019-05-25T13:16:46.060Z,29.10
2019-05-25T13:19:14.499Z,28.10
2019-05-25T13:21:42.938Z,27.70
2019-05-25T13:24:11.380Z,28.30
2019-05-25T13:26:39.844Z,28.70
2019-05-25T13:29:08.325Z,29.10
2019-05-25T13:31:36.779Z,28.50
2019-05-25T13:34:05.220Z,27.70
2019-05-25T13:36:33.676Z,27.80
2019-05-25T13:39:02.174Z,27.60
2019-05-25T13:41:30.619Z,27.00
2019-05-25T13:43:59.064Z,27.10
2019-05-25T13:46:29.228Z,27.20
2019-05-25T13:48:57.761Z,27.20
2019-05-25T13:51:26.192Z,27.20
2019-05-25T13:53:54.655Z,26.50
2019-05-25T13:56:23.158Z,25.60
2019-05-25T13:58:51.656Z,25.30
2019-05-25T14:01:28.250Z,25.50
2019-05-25T14:03:50.273Z,25.50
2019-05-25T14:06:18.711Z,25.50
2019-05-25T14:08:47.263Z,25.70
2019-05-25T14:11:15.687Z,25.90
2019-05-25T14:13:44.171Z,25.80
2019-05-25T14:16:12.900Z,25.90
2019-05-25T14:18:41.332Z,25.90
2019-05-25T14:21:09.894Z,25.80
2019-05-25T14:23:38.394Z,25.60
2019-05-25T14:26:06.860Z,25.60
2019-05-25T14:28:35.292Z,25.50
2019-05-25T14:31:03.815Z,25.60
2019-05-25T14:33:32.252Z,25.50
2019-05-25T14:36:00.688Z,25.30
2019-05-25T14:38:29.128Z,25.40
2019-05-25T14:40:57.577Z,25.40
2019-05-25T14:43:25.998Z,25.50
2019-05-25T14:45:54.450Z,25.40
2019-05-25T14:48:22.880Z,25.30
2019-05-25T14:50:51.326Z,25.20
2019-05-25T14:53:19.755Z,25.00
2019-05-25T14:55:48.200Z,25.00
2019-05-25T14:58:16.637Z,25.10
2019-05-25T15:00:45.081Z,25.20
2019-05-25T15:03:15.115Z,25.30
2019-05-25T15:05:43.591Z,25.40
2019-05-25T15:08:12.182Z,25.60
2019-05-25T15:10:40.653Z,25.70
2019-05-25T15:13:09.112Z,25.40
2019-05-25T15:15:37.545Z,25.00
2019-05-25T15:18:06.020Z,24.90
2019-05-25T15:20:34.536Z,24.80
2019-05-25T15:23:02.981Z,24.90
2019-05-25T15:25:31.449Z,25.00
2019-05-25T15:27:59.872Z,25.00
2019-05-25T15:30:28.342Z,25.00
2019-05-25T15:32:56.787Z,24.50
2019-05-25T15:35:25.238Z,24.20
2019-05-25T15:37:53.668Z,23.80
2019-05-25T15:40:22.669Z,23.70
2019-05-25T15:42:51.097Z,23.30
2019-05-25T15:45:19.655Z,23.20
2019-05-25T15:47:48.089Z,23.00
2019-05-25T15:50:16.962Z,23.00
2019-05-25T15:52:45.492Z,23.20
2019-05-25T15:55:14.069Z,23.50
2019-05-25T15:57:42.547Z,23.50
2019-05-25T16:00:12.199Z,23.40
2019-05-25T16:02:40.707Z,23.20
2019-05-25T16:05:09.400Z,23.20
2019-05-25T16:07:40.918Z,23.00
2019-05-25T16:10:09.705Z,22.60
2019-05-25T16:12:38.156Z,22.40
2019-05-25T16:15:08.476Z,22.00
2019-05-25T16:17:36.976Z,21.80
2019-05-25T16:20:06.172Z,21.70
2019-05-25T16:22:34.635Z,21.40
2019-05-25T16:25:03.434Z,21.20
2019-05-25T16:27:31.950Z,21.10
2019-05-25T16:30:00.376Z,20.90
2019-05-25T16:32:28.835Z,20.80
2019-05-25T16:34:57.265Z,20.80
2019-05-25T16:37:25.750Z,20.80
2019-05-25T16:39:54.241Z,20.90
2019-05-25T16:42:22.700Z,21.00
2019-05-25T16:44:51.145Z,21.10
2019-05-25T16:47:19.640Z,21.10
2019-05-25T16:49:48.105Z,20.90
2019-05-25T16:52:16.532Z,20.90
2019-05-25T16:54:45.000Z,20.90
2019-05-25T16:57:13.435Z,20.70
2019-05-25T16:59:41.903Z,20.60
2019-05-25T17:02:10.348Z,20.70
2019-05-25T17:04:38.793Z,20.70
2019-05-25T17:07:07.244Z,20.60
2019-05-25T17:09:35.687Z,20.60
2019-05-25T17:12:04.358Z,20.60
2019-05-25T17:14:32.811Z,20.60
2019-05-25T17:17:01.277Z,20.60
2019-05-25T17:19:29.705Z,20.60
2019-05-25T17:21:58.139Z,20.50
2019-05-25T17:24:26.572Z,20.40
2019-05-25T17:26:55.025Z,20.30
2019-05-25T17:29:23.462Z,20.20
2019-05-25T17:31:51.987Z,20.10
2019-05-25T17:34:20.432Z,20.10
2019-05-25T17:36:48.887Z,20.00
2019-05-25T17:39:17.379Z,20.00
2019-05-25T17:41:45.818Z,20.00
2019-05-25T17:44:14.263Z,19.90
2019-05-25T17:46:42.698Z,19.90
2019-05-25T17:49:11.144Z,19.80
2019-05-25T17:51:39.660Z,19.80
2019-05-25T17:54:08.232Z,19.70
2019-05-25T17:56:36.664Z,19.80
2019-05-25T17:59:05.203Z,19.80
2019-05-25T18:01:33.640Z,19.80
2019-05-25T18:04:07.002Z,19.70
2019-05-25T18:06:32.800Z,19.80
2019-05-25T18:09:01.259Z,19.80
2019-05-25T18:11:29.701Z,19.80
2019-05-25T18:13:58.141Z,19.70
2019-05-25T18:16:26.605Z,19.70
2019-05-25T18:18:55.028Z,19.70
2019-05-25T18:21:23.509Z,19.60
2019-05-25T18:23:51.976Z,19.60
2019-05-25T18:26:20.416Z,19.50
2019-05-25T18:28:48.848Z,19.40
2019-05-25T18:31:17.319Z,19.40
2019-05-25T18:33:45.814Z,19.40
2019-05-25T18:36:14.302Z,19.50
2019-05-25T18:38:42.734Z,19.50
2019-05-25T18:41:11.178Z,19.40
2019-05-25T18:43:39.639Z,19.40
2019-05-25T18:46:08.089Z,19.40
2019-05-25T18:48:36.593Z,19.30
2019-05-25T18:51:05.371Z,19.30
2019-05-25T18:53:33.818Z,19.30
2019-05-25T18:56:02.241Z,19.30
2019-05-25T18:58:30.695Z,19.30
2019-05-25T19:00:59.137Z,19.30
2019-05-25T19:03:27.659Z,19.40
2019-05-25T19:05:56.109Z,19.30
2019-05-25T19:08:24.918Z,19.30
2019-05-25T19:10:53.450Z,19.30
2019-05-25T19:13:21.892Z,19.30
2019-05-25T19:15:50.431Z,19.30
2019-05-25T19:18:18.856Z,19.30
2019-05-25T19:20:47.380Z,19.40
2019-05-25T19:23:15.869Z,19.30
2019-05-25T19:25:44.349Z,19.20
2019-05-25T19:28:12.788Z,19.10
2019-05-25T19:30:41.216Z,19.10
2019-05-25T19:33:09.721Z,19.10
2019-05-25T19:35:38.204Z,19.00
2019-05-25T19:38:06.657Z,19.00
2019-05-25T19:40:35.097Z,19.00
2019-05-25T19:43:03.572Z,19.00
2019-05-25T19:45:32.991Z,19.00
2019-05-25T19:48:01.535Z,19.00
2019-05-25T19:50:30.083Z,19.00
2019-05-25T19:52:58.519Z,19.00
2019-05-25T19:55:26.973Z,18.90
2019-05-25T19:57:55.399Z,18.90
2019-05-25T20:00:24.537Z,18.80
2019-05-25T20:02:52.973Z,18.70
2019-05-25T20:05:21.436Z,18.60
2019-05-25T20:07:49.875Z,18.50
2019-05-25T20:10:18.563Z,18.40
2019-05-25T20:12:47.135Z,18.40
2019-05-25T20:15:16.302Z,18.30
2019-05-25T20:17:44.737Z,18.20
2019-05-25T20:20:14.268Z,18.10
2019-05-25T20:22:42.857Z,18.10
2019-05-25T20:25:11.357Z,18.00
2019-05-25T20:27:39.829Z,17.90
2019-05-25T20:30:08.769Z,17.90
2019-05-25T20:32:37.272Z,17.90
2019-05-25T20:35:07.083Z,18.00
2019-05-25T20:37:35.600Z,17.90
2019-05-25T20:40:07.935Z,17.80
2019-05-25T20:42:36.693Z,17.70
2019-05-25T20:45:07.233Z,17.70
2019-05-25T20:47:35.717Z,17.60
2019-05-25T20:50:06.309Z,17.50
2019-05-25T20:52:34.763Z,17.40
2019-05-25T20:55:04.025Z,17.30
2019-05-25T20:57:32.461Z,17.30
2019-05-25T21:00:00.981Z,17.20
2019-05-25T21:02:29.417Z,17.10
2019-05-25T21:04:57.865Z,17.10
2019-05-25T21:07:26.313Z,17.00
2019-05-25T21:09:54.760Z,16.90
2019-05-25T21:12:23.537Z,16.90
2019-05-25T21:14:51.986Z,16.90
2019-05-25T21:17:20.431Z,16.90
2019-05-25T21:19:48.869Z,16.90
2019-05-25T21:22:17.321Z,16.90
2019-05-25T21:24:45.802Z,17.00
2019-05-25T21:27:14.306Z,16.90
2019-05-25T21:29:42.740Z,16.90
2019-05-25T21:32:11.192Z,16.90
2019-05-25T21:34:39.653Z,16.80
2019-05-25T21:37:08.209Z,16.70
2019-05-25T21:39:36.705Z,16.60
2019-05-25T21:42:05.380Z,16.50
2019-05-25T21:44:33.881Z,16.50
2019-05-25T21:47:02.448Z,16.50
2019-05-25T21:49:30.883Z,16.50
2019-05-25T21:51:59.333Z,16.50
2019-05-25T21:54:27.775Z,16.40
2019-05-25T21:56:56.242Z,16.40
2019-05-25T21:59:24.776Z,16.30
2019-05-25T22:01:53.280Z,16.40
2019-05-25T22:04:23.869Z,16.30
2019-05-25T22:06:52.320Z,16.30
2019-05-25T22:09:20.769Z,16.20
2019-05-25T22:11:49.423Z,16.20
2019-05-25T22:14:17.934Z,16.10
2019-05-25T22:16:46.424Z,16.20
2019-05-25T22:19:16.469Z,16.20
2019-05-25T22:21:46.243Z,16.20
2019-05-25T22:24:14.844Z,16.20
2019-05-25T22:26:43.367Z,16.20
2019-05-25T22:29:11.809Z,16.20
2019-05-25T22:31:40.270Z,16.10
2019-05-25T22:34:08.713Z,16.10
2019-05-25T22:36:40.928Z,16.10
2019-05-25T22:39:08.426Z,16.10
2019-05-25T22:41:36.871Z,16.10
2019-05-25T22:44:05.576Z,16.10
2019-05-25T22:46:34.038Z,16.10
2019-05-25T22:49:02.494Z,16.00
2019-05-25T22:51:31.018Z,16.00
2019-05-25T22:53:59.473Z,16.00
2019-05-25T22:56:27.951Z,16.00
2019-05-25T22:58:56.441Z,16.10
2019-05-25T23:01:24.881Z,16.10
2019-05-25T23:03:53.323Z,16.00
2019-05-25T23:06:23.347Z,15.90
2019-05-25T23:08:51.821Z,15.90
2019-05-25T23:11:20.323Z,15.90
2019-05-25T23:13:48.768Z,15.90
2019-05-25T23:16:17.253Z,15.90
2019-05-25T23:18:45.714Z,15.90
2019-05-25T23:21:14.245Z,15.90
2019-05-25T23:23:42.688Z,15.80
2019-05-25T23:26:11.316Z,15.80
2019-05-25T23:28:39.784Z,15.70
2019-05-25T23:31:08.251Z,15.60
2019-05-25T23:33:36.688Z,15.60
2019-05-25T23:36:05.133Z,15.60
2019-05-25T23:38:33.643Z,15.60
2019-05-25T23:41:02.092Z,15.60
2019-05-25T23:43:30.535Z,15.50
2019-05-25T23:45:58.980Z,15.40
2019-05-25T23:48:27.424Z,15.30
2019-05-25T23:50:55.877Z,14.90
2019-05-25T23:53:24.362Z,14.50
2019-05-25T23:55:52.833Z,14.40
2019-05-25T23:58:21.251Z,14.50
